Currently 72°F in Temecula, California, USA
72°F
72°F / 52°F
2 mph W
0.00"
Saturday, September 23, 2017 1:04 PM PDT

Temecula, California Weather Summary
Last 36 Hours

Temperature Winds Hourly Humidity Dewpoint
Time Report Norm Report Norm Max Gusts Precip. Rpt. Norm Rpt. Norm Pressure
1,2Sat 01:04 PM  72.2°F  86°F  2 mph W  7 mph  9 mph  0.00"  50%  33%  52°F  53°F  29.90"
Sat 01:00 PM  71.7°F  86°F  6 mph SW  7 mph  9 mph  0.00"  51%  33%  52°F  53°F  29.89"
Sat 12:00 PM  69.3°F  83°F  2 mph W  4 mph  13 mph  0.00"  56%  38%  52°F  54°F  29.90"
Sat 11:00 AM  67.4°F  77°F  5 mph W  2 mph  9 mph  0.00"  62%  48%  54°F  55°F  29.92"
Sat 10:00 AM  63.8°F  70°F  4 mph S  2 mph  9 mph  0.00"  70%  62%  54°F  56°F  29.93"
Sat 09:00 AM  58.1°F  64°F  1 mph W  1 mph  3 mph  0.00"  86%  76%  54°F  56°F  29.94"
Sat 08:00 AM  53.5°F  60°F  calm  1 mph  1 mph  0.00"  94%  85%  52°F  55°F  29.93"
3Sat 07:16 AM  52.3°F  59°F  calm  1 mph  1 mph  ----  94%  86%  51°F  55°F  29.92"
Sat 07:00 AM  52.7°F  59°F  calm  calm  1 mph  0.00"  94%  86%  51°F  54°F  29.92"
Sat 06:00 AM  54.2°F  59°F  calm  1 mph  5 mph  0.00"  93%  85%  52°F  55°F  29.90"
Sat 05:00 AM  56.3°F  60°F  2 mph S  1 mph  4 mph  0.00"  94%  84%  54°F  55°F  29.89"
Sat 04:00 AM  56.5°F  61°F  calm  1 mph  5 mph  0.00"  94%  83%  55°F  55°F  29.89"
Sat 03:00 AM  56.9°F  62°F  3 mph S  1 mph  5 mph  0.00"  92%  81%  55°F  56°F  29.89"
Sat 02:00 AM  57.8°F  62°F  2 mph S  1 mph  4 mph  0.00"  91%  80%  55°F  56°F  29.89"
Sat 01:00 AM  58.7°F  63°F  2 mph S  1 mph  5 mph  0.00"  89%  78%  55°F  56°F  29.89"
Sat 12:00 AM  59.6°F  64°F  2 mph SW  1 mph  7 mph  0.00"  88%  76%  56°F  57°F  29.89"
Fri 11:00 PM  59.7°F  66°F  4 mph SW  1 mph  5 mph  0.00"  87%  74%  56°F  57°F  29.89"
Fri 10:00 PM  60.3°F  67°F  2 mph SW  1 mph  6 mph  0.00"  86%  71%  56°F  57°F  29.89"
Fri 09:00 PM  61.3°F  69°F  2 mph S  1 mph  14 mph  0.00"  81%  67%  55°F  57°F  29.89"
Fri 08:00 PM  62.9°F  71°F  5 mph SW  3 mph  15 mph  0.00"  75%  62%  54°F  57°F  29.88"
Fri 07:00 PM  65.4°F  75°F  7 mph SW  4 mph  15 mph  0.00"  63%  53%  52°F  56°F  29.85"
Fri 06:00 PM  69.5°F  80°F  7 mph SW  6 mph  16 mph  0.00"  57%  43%  53°F  55°F  29.84"
Fri 05:00 PM  70.6°F  84°F  9 mph SW  8 mph  17 mph  0.00"  57%  38%  54°F  55°F  29.84"
Fri 04:00 PM  72.2°F  86°F  8 mph SW  8 mph  15 mph  0.00"  53%  35%  54°F  54°F  29.83"
Fri 03:00 PM  72.8°F  87°F  5 mph SW  9 mph  14 mph  0.00"  49%  33%  52°F  54°F  29.83"
Fri 02:00 PM  73.7°F  87°F  3 mph W  8 mph  10 mph  0.00"  45%  33%  50°F  54°F  29.87"
Fri 01:00 PM  69.8°F  86°F  3 mph SW  7 mph  12 mph  0.00"  49%  34%  49°F  53°F  29.90"
Fri 12:00 PM  68.7°F  83°F  3 mph SW  5 mph  11 mph  0.00"  56%  38%  52°F  54°F  29.93"
Fri 11:00 AM  66.8°F  77°F  5 mph W  2 mph  10 mph  0.00"  63%  49%  53°F  56°F  29.95"
Fri 10:00 AM  62.3°F  70°F  3 mph W  2 mph  7 mph  0.00"  75%  62%  54°F  56°F  29.96"
Fri 09:00 AM  56.6°F  64°F  calm  1 mph  3 mph  0.00"  80%  77%  50°F  56°F  29.96"
Fri 08:00 AM  51.6°F  60°F  calm  1 mph  2 mph  0.00"  89%  85%  48°F  55°F  29.96"
Fri 07:00 AM  50.2°F  59°F  calm  calm  1 mph  0.00"  92%  87%  48°F  55°F  29.96"
Fri 06:00 AM  50.5°F  59°F  1 mph NW  calm  5 mph  0.00"  90%  86%  48°F  55°F  29.94"
Fri 05:00 AM  51.1°F  60°F  calm  1 mph  3 mph  0.00"  92%  85%  49°F  55°F  29.93"
Fri 04:00 AM  52.1°F  61°F  2 mph NE  1 mph  4 mph  0.00"  92%  84%  50°F  56°F  29.92"
Fri 03:00 AM  53.2°F  62°F  2 mph NE  1 mph  6 mph  0.00"  91%  82%  51°F  56°F  29.92"
Fri 02:00 AM  55.2°F  62°F  calm  calm  2 mph  0.00"  90%  81%  52°F  56°F  29.93"

  1. Current weather data. No green row appears if the current weather data is also the high or low for the current day.
  2. High temperature for the current day.
  3. Low temperature for the current day.

The Temecula weather pages are a service of WeatherCurrents. Temecula, California is located in the Temecula Valley, in southwestern Riverside County, along the Interstate 15 highway. The Temecula Valley's rolling hills are home to the Temecula wine country, vineyards, golf courses, a casino resort, and Old Town Temecula.
Copyright ©Sat Sep 23 13:05:32 PDT 2017  WeatherCurrents. All rights reserved. - Submit questions and comments - Privacy Policy

This page automatically refreshes every 10 minutes.